الصفحة الرئيسية
METAR-TAF:

METAR-TAF

مطار :

بسكرة, الجزائر

دائرة عرض: 34-48N, خط طول: 005-44E, ارتفاع: 87 متر

مراقبة الطقس الحالي

تاريخ ووقت الإصدار 58 دقيقة قبل الساعة 21:00UTC
ريح 4 عقدة من الشرق/الشمال الشرقي
درجة الحرارة 29°درجة مئوية
الرطوبة 19%
ضغط 1019 hPa
الرؤية 10 كم أو أكثر
غيوم قليلة على ارتفاع 4000 قدم

METAR: DAUB 252100Z 07004KT 9999 FEW040 29/03 Q1019

زمن: 22:58 (21:58 UTC)

توقعات

تاريخ ووقت الإصدار 4ساعات و 58 دقيقة قبل الساعة 17:00UTC
التوقعات صالحة من25 الساعة 18 UTC إلى 26 الساعة 18 UTC
ريح 8 عقدة من الغرب/الجنوب الغربي
الرؤية 10 كم أو أكثر
غيوم قليلة على ارتفاع 4000 قدم
غيوم متفرقة على ارتفاع 20000 قدم
نظرية الاحتمالات 30% :
مؤقت
من 26 الساعة 12 UTC إلى 26 الساعة 18 UTC
ريح 12 عقدة من الجنوب/الجنوب الشرقي

TAF: DAUB 251700Z 2518/2618 24008KT 9999 FEW040 SCT200 PROB30 TEMPO 2612/2618 16012KT

أرصاد الطقس والتوقعات من أكثر من 4000 مطار (تقارير الطقس للمطار METAR والتنبؤ بالطقس بالمطارTAF).

المحطات المتاحة هي النقط الصفراء والحمراء على الخريطة.

حرك المؤشر فوق النقطة لمعرفة اسم المحطة.

ثم انقر لمعرفة أرصاد وتوقعات الطقس.

لتغيير الخارطة: اضغط على الأزرار الخضراء مع رمز الصليب الأسود للتكبير. على الزر الأخضر مع شرطة للتصغير، أو على الأسهم الخضراء للخرائط المجاورة.


METAR-TAF: